• Join FlightAware (Why Join?)
  • Login
  • US Flag 
10:08AM EDT


 

Airport Tracker/Info


-or-


 

Live Flight TrackerFlight Track Log ✈ SWA2054 ✈ 02-Dec-2013 ✈ KSLC - KDEN

Flight Track Log - Related Links

Times and Time Zones

All times are in EST time to prevent confusion due to time zone crossing. See the SWA2054 flight status page for this flight to view local times or setup timezone preferences in your user account.

Time Position Orientation Groundspeed Altitude Reporting Facility
EST Latitude Longitude Course Direction KTS MPH feet Rate Location/Type
02:31PM 40.7533 -112.0372 246° West 210 242 6,800  Level Salt Lake Center
02:32PM 40.7572 -112.0617 282° West 222 255 7,600 3,360 Climbing Salt Lake Center
02:32PM 40.7836 -112.1033 310° West 234 269 9,900 3,540 Climbing Salt Lake Center
02:33PM 40.8017 -112.1256 317° Northwest 237 273 11,300 3,120 Climbing Salt Lake Center
02:34PM 40.8656 -112.1319 356° North 282 325 14,500 2,580 Climbing Salt Lake Center
02:35PM 40.8814 -112.0097 80° East 358 412 16,700 2,100 Climbing Salt Lake Center
02:36PM 40.8856 -111.8706 88° East 396 456 18,900 2,280 Climbing Salt Lake Center
02:37PM 40.8736 -111.6864 95° East 433 498 21,500 2,460 Climbing Salt Lake Center
02:38PM 40.8633 -111.5250 95° East 445 512 24,000 1,980 Climbing Salt Lake Center
02:39PM 40.8533 -111.3539 94° East 470 541 25,600 1,440 Climbing Salt Lake Center
02:40PM 40.8417 -111.1722 95° East 495 570 27,000 1,500 Climbing Salt Lake Center
02:41PM 40.8292 -110.9811 95° East 517 595 28,700 1,920 Climbing Salt Lake Center
02:42PM 40.8114 -110.7469 96° East 534 615 31,000 1,800 Climbing Salt Lake Center
02:43PM 40.7975 -110.5508 95° East 542 624 32,500 1,740 Climbing Salt Lake Center
02:44PM 40.7844 -110.3639 95° East 539 620 34,600 1,800 Climbing Salt Lake Center
02:45PM 40.7675 -110.1492 96° East 532 612 36,300 1,560 Climbing Salt Lake Center
02:46PM 40.7525 -109.9639 96° East 531 611 37,900 1,260 Climbing Salt Lake Center
02:47PM 40.7364 -109.7475 96° East 530 610 39,000 540 Climbing Salt Lake Center
02:48PM 40.7222 -109.5586 96° East 536 617 39,100  Climbing Salt Lake Center
02:49PM 40.7056 -109.3408 96° East 535 616 39,100  Level Salt Lake Center
02:50PM 40.6903 -109.1631 96° East 529 609 39,100  Level Salt Lake Center
02:51PM 40.6719 -108.9492 96° East 531 611 39,100  Level Salt Lake Center
02:52PM 40.6528 -108.7172 96° East 538 619 39,100  Level Denver Center
02:53PM 40.6356 -108.5267 97° East 543 625 39,100  Level Denver Center
02:54PM 40.6156 -108.3044 97° East 545 627 39,100  Level Denver Center
02:55PM 40.5972 -108.1106 97° East 553 636 39,100  Level Denver Center
02:56PM 40.5794 -107.9178 97° East 554 638 39,100  Level Denver Center
02:58PM 40.5581 -107.6917 97° East 556 640 39,100  Level Denver Center
02:59PM 40.5383 -107.4972 98° East 559 643 39,100 -120 Level Denver Center
03:00PM 40.5175 -107.2708 97° East 558 642 38,900 -540 Descending Denver Center
03:01PM 40.5072 -107.0611 94° East 558 642 37,900 -1,020 Descending Denver Center
03:02PM 40.4939 -106.8142 94° East 560 644 36,700 -1,140 Descending Denver Center
03:03PM 40.4819 -106.6114 94° East 556 640 35,600 -2,040 Descending Denver Center
03:04PM 40.4694 -106.3997 94° East 549 632 32,600 -2,760 Descending Denver Center
03:05PM 40.4583 -106.2075 94° East 550 633 30,000 -2,460 Descending Denver Center
03:06PM 40.4450 -106.0153 95° East 540 621 27,600 -2,340 Descending Denver Center
03:07PM 40.4200 -105.8297 100° East 521 600 25,200 -2,340 Descending Denver Center
03:08PM 40.3864 -105.6214 102° East 490 564 22,900 -1,920 Descending Denver Center
03:09PM 40.3603 -105.4603 102° East 458 527 21,300 -1,500 Descending Denver Center
03:10PM 40.2944 -105.3400 126° Southeast 419 482 19,800 -1,680 Descending Denver Center
03:11PM 40.2197 -105.2214 130° Southeast 396 456 17,900 -1,620 Descending Denver Center
03:12PM 40.1517 -105.1147 130° Southeast 380 437 16,600 -1,380 Descending Denver Center
03:13PM 40.1011 -105.0025 120° Southeast 359 413 15,100 -1,620 Descending Denver Center
03:14PM 40.0508 -104.8803 118° Southeast 353 406 13,300 -1,020 Descending Denver Center
03:15PM 40.0056 -104.7689 118° Southeast 347 399 13,000 -540 Descending Denver Center
03:16PM 39.9739 -104.6642 112° Southeast 316 364 12,300 -840 Descending Denver Center
03:17PM 39.9706 -104.5514 92° East 288 331 11,300 -900 Descending Denver Center
03:18PM 39.9678 -104.4614 92° East 243 280 10,500 -1,500 Descending Denver Center
03:19PM 39.9167 -104.4500 170° South 202 232 8,300 -1,740 Descending Denver TRACON
03:20PM 39.8833 -104.5000 229° Southwest 185 213 6,900 -1,080 Descending Denver TRACON
03:21PM 39.8833 -104.5667 270° West 145 167 6,100 -780 Descending Denver TRACON
03:22PM 39.8833 -104.6167 270° West 142 163 5,300 -360 Descending Denver TRACON
03:23PM 39.8772 -104.6478 256° West 125 144 5,400 60 Climbing Denver Center
03:25PM 39.8617 -104.6732 186° South  Level Estimated
03:32PM 39.8617 -104.6732 North  Level Estimated
03:33PM 39.8617 -104.6732 North  Level Estimated
03:34PM 39.8617 -104.6732 North  Level Estimated